Brandenburg, KY (40108)

12:56 AM EST on February 14, 2016 (GMT -0500)
Old Weldon | | Change Station
CLOSE
Current Station
Personal Weather Station
Location: Brandenburg, KY
Elevation: 636 ft
Nearby Weather Stations
Active Advisory: Winter Weather Advisory

Elev 636 ft 37.97 °N, 86.13 °W | Updated 39 seconds ago

Overcast
Overcast
20.9 °F
Feels Like 21 °F
N
1.0
Wind Variable Wind from East
Gusts 2.0 mph

Today
High -- | Low -- °F
--% Chance of Precip.
Yesterday
High -- | Low -- °F
Precip. -- in
Pressure 30.41 in
Visibility 10.0 miles
Clouds Overcast 13000 ft
Windchill 21 °F
Dew Point 8 °F
Humidity 58%
Rainfall 0.00 in
Snow Depth Not available.
7:36 AM 6:21 PM
Waxing Crescent, 38% visible
SPECI KFTK 140548Z AUTO 08007KT 10SM OVC130 M07/M16 A3041 RMK AO2
Pressure 30.41 in
Visibility 10.0 miles
Clouds Overcast 13000 ft
Windchill 21 °F
Dew Point 8 °F
Humidity 58%
Rainfall 0.00 in
Snow Depth Not available.
7:36 AM 6:21 PM
Waxing Crescent, 38% visible
SPECI KFTK 140548Z AUTO 08007KT 10SM OVC130 M07/M16 A3041 RMK AO2

10-Day Weather Forecast

Almanac

Astronomy

Feb. 14, 2016 Rise Set
Actual Time
Civil Twilight
Nautical Twilight
Astronomical Twilight
Moon
Length of Visible Light
Length of Day
Tomorrow will be .
, % of the Moon is Illuminated

Today's Extremes

State Highs State Lows

Community

WunderPhotos

Upload Photos

1,892,751 photos uploaded!

WunderBlog® & News

Nearby

Air Quality

  Air Quality AQ Index Pollutant
Not available.

Snow Depth

Station Depth Elevation

Earthquake Activity

City Distance Mag. Time & Date
Minimum magnitude displayed is 2.5.

Coastal Water Temperatures

Place Temperature

Stations

Nearby Weather Stations

Station Location Temp. Windchill Dew Point Humidity Wind Precip. Elev Updated Type
                   

Watches & Warnings

Winter Weather Advisory
Issued: 1:04 PM CST Feb. 13, 2016 – National Weather Service

... Winter Weather Advisory in effect from 4 am EST /3 am CST/
Sunday to 7 am EST /6 am CST/ Monday...

The National Weather Service in Louisville has issued a Winter
Weather Advisory for snow... which is in effect from 4 am EST /3
am CST/ Sunday to 7 am EST /6 am CST/ Monday.

* Timing... light snow will begin early Sunday morning... becoming
heavier Sunday afternoon and evening.

* Main impact... 2 to 4 inches of snow will be possible by late
Sunday night.

* Other impacts... there is a chance of a brief period of freezing
drizzle late Sunday night before transitioning to drizzle or
rain by Monday morning.

Precautionary/preparedness actions...

A Winter Weather Advisory for snow means that periods of snow
will cause primarily travel difficulties. Be prepared for snow
covered roads and limited visibilities... and use caution while
driving.